Aviation Digital Data Service (ADDS)

Output produced by METARs form (1834 UTC 24 July 2016)
found at http://aviationweather.gov/adds/metars/
 
KRWI 241725Z 2418/2518 VRB05KT P6SM SCT040 SCT200 
     TEMPO 2508/2512 5SM BR 
     FM251400 22008KT P6SM SCT035 SCT200